createdAt,value
2022-08-31T00:03:54.304Z,11.18
2022-08-31T00:08:57.604Z,11.23
2022-08-31T00:14:01.831Z,11.38
2022-08-31T00:19:05.369Z,11.63
2022-08-31T00:24:07.376Z,12.88
2022-08-31T00:29:09.250Z,12.68
2022-08-31T00:34:10.983Z,12.57
2022-08-31T00:39:14.103Z,12.57
2022-08-31T00:44:15.913Z,10.90
2022-08-31T00:49:30.026Z,11.20
2022-08-31T00:54:35.649Z,10.30
2022-08-31T00:59:39.642Z,7.53
2022-08-31T01:04:41.224Z,7.55
2022-08-31T01:09:55.378Z,7.05
2022-08-31T01:14:59.555Z,7.55
2022-08-31T01:20:24.747Z,7.40
2022-08-31T01:25:33.418Z,7.68
2022-08-31T01:30:36.604Z,7.63
2022-08-31T01:35:40.251Z,8.05
2022-08-31T01:41:02.282Z,8.10
2022-08-31T01:46:10.116Z,7.72
2022-08-31T01:51:15.036Z,7.72
2022-08-31T01:56:24.689Z,7.25
2022-08-31T02:01:36.639Z,7.40
2022-08-31T02:06:45.912Z,8.10
2022-08-31T02:11:47.666Z,7.77
2022-08-31T02:16:49.350Z,7.20
2022-08-31T02:21:51.215Z,7.10
2022-08-31T02:26:53.988Z,7.65
2022-08-31T02:31:56.940Z,8.05
2022-08-31T02:36:58.804Z,8.07
2022-08-31T02:42:00.789Z,8.75
2022-08-31T02:47:02.485Z,7.60
2022-08-31T02:52:31.396Z,8.27
2022-08-31T02:57:33.167Z,8.68
2022-08-31T03:02:35.958Z,8.77
2022-08-31T03:07:38.572Z,9.60
2022-08-31T03:12:40.200Z,8.68
2022-08-31T03:17:42.405Z,6.95
2022-08-31T03:22:45.816Z,7.57
2022-08-31T03:27:48.570Z,6.93
2022-08-31T03:32:51.102Z,6.93
2022-08-31T03:37:54.145Z,7.13
2022-08-31T03:42:57.979Z,6.43
2022-08-31T03:48:01.053Z,6.78
2022-08-31T03:53:04.787Z,8.00
2022-08-31T03:58:06.902Z,9.98
2022-08-31T04:03:08.579Z,10.50
2022-08-31T04:08:31.379Z,13.05
2022-08-31T04:14:02.283Z,11.90
2022-08-31T04:19:15.914Z,14.88
2022-08-31T04:24:32.172Z,18.00
2022-08-31T04:29:34.790Z,16.45
2022-08-31T04:34:36.379Z,16.90
2022-08-31T04:39:50.388Z,18.13
2022-08-31T04:44:52.646Z,21.50
2022-08-31T04:49:54.255Z,19.83
2022-08-31T04:54:56.017Z,19.20
2022-08-31T04:59:57.717Z,20.15
2022-08-31T05:05:17.985Z,21.23
2022-08-31T05:10:21.597Z,21.30
2022-08-31T05:15:23.347Z,20.58
2022-08-31T05:20:25.307Z,20.98
2022-08-31T05:25:27.472Z,20.88
2022-08-31T05:30:29.098Z,21.58
2022-08-31T05:35:40.839Z,21.77
2022-08-31T05:40:42.477Z,20.27
2022-08-31T05:45:44.495Z,19.15
2022-08-31T05:50:46.281Z,17.65
2022-08-31T05:55:47.851Z,20.35
2022-08-31T06:00:49.426Z,19.98
2022-08-31T06:06:09.841Z,16.90
2022-08-31T06:11:15.730Z,16.38
2022-08-31T06:16:18.192Z,16.88
2022-08-31T06:21:23.630Z,13.70
2022-08-31T06:26:28.946Z,12.60
2022-08-31T06:31:35.976Z,13.73
2022-08-31T06:36:38.413Z,14.57
2022-08-31T06:42:15.150Z,14.30
2022-08-31T06:47:35.209Z,14.23
2022-08-31T06:52:39.004Z,14.27
2022-08-31T06:57:54.465Z,14.15
2022-08-31T07:03:21.877Z,13.05
2022-08-31T07:08:24.103Z,14.43
2022-08-31T07:13:26.653Z,13.23
2022-08-31T07:18:28.335Z,16.83
2022-08-31T07:23:30.210Z,17.98
2022-08-31T07:28:43.253Z,15.63
2022-08-31T07:33:45.948Z,15.40
2022-08-31T07:39:06.518Z,15.02
2022-08-31T07:44:11.243Z,14.85
2022-08-31T07:49:13.932Z,14.43
2022-08-31T07:54:20.601Z,14.88
2022-08-31T07:59:42.465Z,16.80
2022-08-31T08:04:44.176Z,18.67
2022-08-31T08:10:09.205Z,15.75
2022-08-31T08:15:40.807Z,14.50
2022-08-31T08:20:48.679Z,12.77
2022-08-31T08:25:51.590Z,12.40
2022-08-31T08:31:11.567Z,12.98
2022-08-31T08:36:20.202Z,11.00
2022-08-31T08:41:25.303Z,11.82
2022-08-31T08:46:40.167Z,10.00
2022-08-31T08:51:43.702Z,9.23
2022-08-31T08:56:49.074Z,9.13
2022-08-31T09:02:06.583Z,9.30
2022-08-31T09:07:30.824Z,9.48
2022-08-31T09:12:44.431Z,8.88
2022-08-31T09:17:52.029Z,8.88
2022-08-31T09:22:56.051Z,7.10
2022-08-31T09:28:01.619Z,8.65
2022-08-31T09:33:04.054Z,9.93
2022-08-31T09:38:11.119Z,8.40
2022-08-31T09:43:24.959Z,11.27
2022-08-31T09:48:53.251Z,12.25
2022-08-31T09:54:18.227Z,12.27
2022-08-31T09:59:40.232Z,16.48
2022-08-31T10:04:57.447Z,20.00
2022-08-31T10:10:28.069Z,16.70
2022-08-31T10:15:44.947Z,20.30
2022-08-31T10:20:56.891Z,21.65
2022-08-31T10:26:05.566Z,17.92
2022-08-31T10:31:21.024Z,21.50
2022-08-31T10:36:25.254Z,15.40
2022-08-31T10:41:32.935Z,21.00
2022-08-31T10:46:35.597Z,12.13
2022-08-31T10:51:49.101Z,16.35
2022-08-31T10:57:09.479Z,20.13
2022-08-31T11:02:26.009Z,14.65
2022-08-31T11:07:41.186Z,16.10
2022-08-31T11:12:55.128Z,16.50
2022-08-31T11:18:13.535Z,17.00
2022-08-31T11:23:33.432Z,13.88
2022-08-31T11:28:51.852Z,13.02
2022-08-31T11:39:38.025Z,15.90
2022-08-31T11:44:39.635Z,14.55
2022-08-31T11:49:50.270Z,15.75
2022-08-31T11:54:52.639Z,17.02
2022-08-31T11:59:56.016Z,15.35
2022-08-31T12:05:03.358Z,14.60
2022-08-31T12:10:14.107Z,12.25
2022-08-31T12:15:31.946Z,14.57
2022-08-31T12:21:16.866Z,10.80
2022-08-31T12:26:46.530Z,13.27
2022-08-31T12:32:08.708Z,13.07
2022-08-31T12:37:21.285Z,11.93
2022-08-31T12:42:23.784Z,12.35
2022-08-31T12:47:40.273Z,12.60
2022-08-31T12:52:53.661Z,12.80
2022-08-31T12:58:13.931Z,13.57
2022-08-31T13:03:21.540Z,13.43
2022-08-31T13:08:25.864Z,12.85
2022-08-31T13:13:29.236Z,10.65
2022-08-31T13:18:31.306Z,10.68
2022-08-31T13:23:42.927Z,10.40
2022-08-31T13:28:50.180Z,11.85
2022-08-31T13:33:53.129Z,12.45
2022-08-31T13:38:54.707Z,11.70
2022-08-31T13:44:02.559Z,10.52
2022-08-31T13:49:20.741Z,11.63
2022-08-31T13:54:34.007Z,11.38
2022-08-31T13:59:38.711Z,11.50
2022-08-31T14:04:49.142Z,11.63
2022-08-31T14:10:02.024Z,11.98
2022-08-31T14:15:08.397Z,12.35
2022-08-31T14:20:33.910Z,12.18
2022-08-31T14:25:35.530Z,12.10
2022-08-31T14:30:37.208Z,11.38
2022-08-31T14:35:40.106Z,11.80
2022-08-31T14:40:43.834Z,11.68
2022-08-31T14:45:45.511Z,11.20
2022-08-31T14:50:47.092Z,11.18
2022-08-31T14:55:48.798Z,11.70
2022-08-31T15:00:53.708Z,12.55
2022-08-31T15:06:03.314Z,12.05
2022-08-31T15:11:06.135Z,11.80
2022-08-31T15:16:10.873Z,11.90
2022-08-31T15:21:12.552Z,11.43
2022-08-31T15:26:16.984Z,12.68
2022-08-31T15:31:25.388Z,10.52
2022-08-31T15:36:27.771Z,10.90
2022-08-31T15:41:29.883Z,11.32
2022-08-31T15:46:51.681Z,10.77
2022-08-31T15:51:54.009Z,10.98
2022-08-31T15:56:55.712Z,11.10
2022-08-31T16:01:57.543Z,10.68
2022-08-31T16:07:00.977Z,11.32
2022-08-31T16:12:02.846Z,11.05
2022-08-31T16:17:09.459Z,11.45
2022-08-31T16:22:11.250Z,9.13
2022-08-31T16:27:16.445Z,9.80
2022-08-31T16:32:19.268Z,9.38
2022-08-31T16:37:21.264Z,11.98
2022-08-31T16:42:22.901Z,11.68
2022-08-31T16:47:24.501Z,10.77
2022-08-31T16:52:27.410Z,10.52
2022-08-31T16:57:32.545Z,9.65
2022-08-31T17:02:34.353Z,9.95
2022-08-31T17:07:36.803Z,9.20
2022-08-31T17:12:42.011Z,11.00
2022-08-31T17:17:47.953Z,9.52
2022-08-31T17:22:50.874Z,9.38
2022-08-31T17:27:56.159Z,9.32
2022-08-31T17:33:01.439Z,10.40
2022-08-31T17:38:03.325Z,10.55
2022-08-31T17:43:04.954Z,10.60
2022-08-31T17:48:06.615Z,10.02
2022-08-31T17:53:08.307Z,11.68
2022-08-31T17:58:11.202Z,11.23
2022-08-31T18:03:12.819Z,12.13
2022-08-31T18:08:15.090Z,12.43
2022-08-31T18:13:16.744Z,11.27
2022-08-31T18:18:18.739Z,11.63
2022-08-31T18:23:20.591Z,11.18
2022-08-31T18:28:22.277Z,12.02
2022-08-31T18:33:24.627Z,13.25
2022-08-31T18:38:27.283Z,12.75
2022-08-31T18:43:47.290Z,13.45
2022-08-31T18:48:54.200Z,17.50
2022-08-31T18:53:55.975Z,17.02
2022-08-31T18:58:58.116Z,19.73
2022-08-31T19:04:02.475Z,17.55
2022-08-31T19:09:04.213Z,17.50
2022-08-31T19:14:05.821Z,17.02
2022-08-31T19:19:08.161Z,17.83
2022-08-31T19:24:13.214Z,21.73
2022-08-31T19:29:22.814Z,19.30
2022-08-31T19:39:31.771Z,18.52
2022-08-31T19:50:13.616Z,22.08
2022-08-31T19:55:15.586Z,21.63
2022-08-31T20:00:17.346Z,23.02
2022-08-31T20:05:20.885Z,23.13
2022-08-31T20:10:24.936Z,24.08
2022-08-31T20:15:36.928Z,25.90
2022-08-31T20:20:48.287Z,24.65
2022-08-31T20:25:55.493Z,26.33
2022-08-31T20:31:00.029Z,26.55
2022-08-31T20:36:11.601Z,27.13
2022-08-31T20:41:14.193Z,27.63
2022-08-31T20:46:34.237Z,27.85
2022-08-31T20:51:40.465Z,26.73
2022-08-31T20:56:43.042Z,29.50
2022-08-31T21:01:45.962Z,30.45
2022-08-31T21:06:47.621Z,34.50
2022-08-31T21:11:49.990Z,33.63
2022-08-31T21:16:52.871Z,35.42
2022-08-31T21:22:00.833Z,30.48
2022-08-31T21:27:05.726Z,32.30
2022-08-31T21:32:10.258Z,34.75
2022-08-31T21:37:12.146Z,34.15
2022-08-31T21:42:13.700Z,37.55
2022-08-31T21:47:15.279Z,35.20
2022-08-31T21:52:17.208Z,36.25
2022-08-31T21:57:18.880Z,32.85
2022-08-31T22:02:20.479Z,30.98
2022-08-31T22:07:22.045Z,29.27
2022-08-31T22:12:25.205Z,28.92
2022-08-31T22:17:48.251Z,25.02
2022-08-31T22:22:48.645Z,23.20
2022-08-31T22:27:51.302Z,26.02
2022-08-31T22:32:53.839Z,24.83
2022-08-31T22:37:55.402Z,25.77
2022-08-31T22:42:58.581Z,24.33
2022-08-31T22:48:00.569Z,24.38
2022-08-31T22:53:02.141Z,25.02
2022-08-31T22:58:04.571Z,22.85
2022-08-31T23:03:06.647Z,19.35
2022-08-31T23:08:08.422Z,18.52
2022-08-31T23:13:10.054Z,17.40
2022-08-31T23:18:13.388Z,17.83
2022-08-31T23:23:15.121Z,16.85
2022-08-31T23:28:16.691Z,16.83
2022-08-31T23:33:19.914Z,16.38
2022-08-31T23:38:23.060Z,17.25
2022-08-31T23:43:25.924Z,15.20
2022-08-31T23:48:28.827Z,17.63
2022-08-31T23:53:30.363Z,17.27
2022-08-31T23:58:36.127Z,16.88
